Time;durP1;ratioP1;P1;durP2;ratioP2;P2;SDS_P1;SDS_P2;PMS_P1;PMS_P2;Temp;Humidity;BMP_temperature;BMP_pressure;BME280_temperature;BME280_humidity;BME280_pressure;Samples;Min_cycle;Max_cycle;Signal;HPM_P1;HPM_P2
2021/12/27 00:01:06;;;;;;;8.52;2.85;;;8.70;99.90;;;;;;5045492;28;20102;-64
2021/12/27 00:03:33;;;;;;;7.75;2.30;;;8.70;99.90;;;;;;5044942;28;20438;-64
2021/12/27 00:06:00;;;;;;;5.95;2.88;;;8.70;99.90;;;;;;5046640;28;20106;-65
2021/12/27 00:08:27;;;;;;;10.05;3.25;;;8.70;99.90;;;;;;5046105;28;20106;-65
2021/12/27 00:10:53;;;;;;;11.18;3.00;;;8.70;99.90;;;;;;4698257;28;9999994;-65
2021/12/27 00:13:20;;;;;;;5.93;2.83;;;8.70;99.90;;;;;;5048107;28;20076;-64
2021/12/27 00:15:47;;;;;;;8.88;2.88;;;8.80;99.90;;;;;;5048567;28;20080;-64
2021/12/27 00:18:14;;;;;;;5.32;2.33;;;8.80;99.90;;;;;;5048983;28;20131;-64
2021/12/27 00:20:41;;;;;;;11.60;2.30;;;8.80;99.90;;;;;;5047878;28;20041;-64
2021/12/27 00:23:07;;;;;;;6.53;2.58;;;8.70;99.90;;;;;;5048573;28;20341;-64
2021/12/27 00:25:34;;;;;;;7.00;2.90;;;8.80;99.90;;;;;;5048126;28;20099;-63
2021/12/27 00:28:01;;;;;;;6.45;2.45;;;8.80;99.90;;;;;;5047420;28;20083;-64
2021/12/27 00:30:28;;;;;;;6.10;2.30;;;8.90;99.90;;;;;;5047247;28;20053;-63
2021/12/27 00:32:54;;;;;;;4.82;1.98;;;8.90;99.90;;;;;;5047095;28;20041;-63
2021/12/27 00:35:25;;;;;;;11.93;2.35;;;8.90;99.90;;;;;;5047279;28;20504;-63
2021/12/27 00:37:52;;;;;;;11.82;2.70;;;9.00;99.90;;;;;;5047153;28;20037;-63
2021/12/27 00:40:19;;;;;;;7.90;3.92;;;8.90;99.90;;;;;;5046366;28;20492;-63
2021/12/27 00:42:46;;;;;;;7.38;2.90;;;9.00;99.90;;;;;;5047678;28;20085;-64
2021/12/27 00:45:13;;;;;;;6.15;2.05;;;9.00;99.90;;;;;;5047352;28;20083;-63
2021/12/27 00:47:40;;;;;;;6.07;1.83;;;9.00;99.90;;;;;;5047915;28;20056;-64
2021/12/27 00:50:07;;;;;;;8.00;1.67;;;8.90;99.90;;;;;;5046981;28;20057;-64
2021/12/27 00:52:35;;;;;;;13.80;3.55;;;8.90;99.90;;;;;;5047475;28;20107;-64
2021/12/27 00:55:09;;;;;;;7.30;2.00;;;8.90;99.90;;;;;;5048411;28;20041;-65
2021/12/27 00:57:36;;;;;;;5.97;1.95;;;8.90;99.90;;;;;;5048668;28;20041;-64
2021/12/27 01:00:07;;;;;;;4.78;1.80;;;8.90;99.90;;;;;;5046798;28;20052;-64
2021/12/27 01:02:34;;;;;;;5.53;1.95;;;8.90;99.90;;;;;;5027800;28;20049;-65
2021/12/27 01:05:01;;;;;;;5.47;2.10;;;8.90;99.90;;;;;;5040830;28;20045;-64
2021/12/27 01:07:28;;;;;;;7.38;2.20;;;8.90;99.90;;;;;;5047074;28;20072;-64
2021/12/27 01:17:40;;;;;;;6.93;2.28;;;8.80;99.90;;;;;;5048380;28;20045;-64
2021/12/27 01:20:09;;;;;;;7.25;2.42;;;8.80;99.90;;;;;;5048250;28;20053;-63
2021/12/27 01:22:36;;;;;;;6.50;2.03;;;8.70;99.90;;;;;;5048025;28;20570;-63
2021/12/27 01:25:05;;;;;;;5.60;2.30;;;8.70;99.90;;;;;;5046960;28;20041;-64
2021/12/27 01:27:33;;;;;;;10.75;2.80;;;8.70;99.90;;;;;;5048168;28;20053;-64
2021/12/27 01:30:00;;;;;;;7.93;2.50;;;8.60;99.90;;;;;;5030061;28;20098;-63
2021/12/27 01:32:31;;;;;;;9.45;2.55;;;8.60;99.90;;;;;;5046755;28;20076;-64
2021/12/27 01:34:58;;;;;;;8.43;2.10;;;8.60;99.90;;;;;;5047899;28;20045;-64
2021/12/27 01:37:25;;;;;;;6.20;2.03;;;8.60;99.90;;;;;;5037459;28;20519;-64
2021/12/27 01:39:51;;;;;;;4.45;1.90;;;8.50;99.90;;;;;;5052167;28;20098;-63
2021/12/27 01:42:18;;;;;;;8.00;2.33;;;8.50;99.90;;;;;;5052069;28;20084;-65
2021/12/27 01:44:46;;;;;;;3.65;2.08;;;8.50;99.90;;;;;;5052078;28;20068;-64
2021/12/27 01:47:13;;;;;;;6.90;2.13;;;8.50;99.90;;;;;;5052250;28;20045;-64
2021/12/27 01:49:39;;;;;;;5.78;2.08;;;8.50;99.90;;;;;;5052065;28;20084;-64
2021/12/27 01:52:06;;;;;;;6.03;2.05;;;8.50;99.90;;;;;;5050475;28;20048;-65
2021/12/27 01:54:33;;;;;;;6.80;2.30;;;8.50;99.90;;;;;;5052153;28;20628;-64
2021/12/27 01:57:00;;;;;;;5.55;1.80;;;8.60;99.90;;;;;;5051749;28;20083;-62
2021/12/27 01:59:27;;;;;;;6.25;2.08;;;8.70;99.90;;;;;;5052030;28;20076;-62
2021/12/27 02:01:54;;;;;;;5.60;2.55;;;8.70;99.90;;;;;;5051736;28;20104;-63
2021/12/27 02:04:21;;;;;;;6.93;3.33;;;8.80;99.90;;;;;;5051869;28;20095;-63
2021/12/27 02:06:48;;;;;;;11.82;1.98;;;8.80;99.90;;;;;;5052275;28;20076;-64
2021/12/27 02:09:28;;;;;;;7.55;2.38;;;8.80;99.90;;;;;;5049945;28;20044;-64
2021/12/27 02:11:55;;;;;;;4.13;1.73;;;8.80;99.90;;;;;;4699583;28;10000331;-63
2021/12/27 02:14:22;;;;;;;6.78;2.13;;;8.80;99.90;;;;;;5048181;28;20041;-64
2021/12/27 02:16:49;;;;;;;8.48;1.98;;;8.80;99.90;;;;;;5031497;28;20044;-63
2021/12/27 02:19:15;;;;;;;7.82;2.45;;;8.80;99.90;;;;;;5051284;28;20080;-63
2021/12/27 02:21:42;;;;;;;9.27;1.92;;;8.80;99.90;;;;;;5050502;28;20049;-63
2021/12/27 02:24:10;;;;;;;10.77;2.42;;;8.80;99.90;;;;;;5050935;28;20483;-64
2021/12/27 02:26:37;;;;;;;16.05;4.03;;;8.80;99.90;;;;;;5051259;28;20037;-63
2021/12/27 02:29:04;;;;;;;7.97;2.42;;;8.80;99.90;;;;;;5050550;28;20120;-63
2021/12/27 02:31:37;;;;;;;6.60;1.75;;;8.80;99.90;;;;;;5050399;28;20069;-64
2021/12/27 02:34:05;;;;;;;8.82;2.30;;;8.80;99.90;;;;;;5051075;28;20432;-64
2021/12/27 02:36:33;;;;;;;11.00;2.13;;;8.80;99.90;;;;;;5050964;28;20094;-64
2021/12/27 02:39:00;;;;;;;4.95;1.88;;;8.80;99.90;;;;;;5049796;28;20114;-64
2021/12/27 02:41:27;;;;;;;11.52;2.53;;;8.80;99.90;;;;;;5051254;28;20045;-64
2021/12/27 02:43:53;;;;;;;8.20;2.17;;;8.80;99.90;;;;;;5052700;28;20128;-64
2021/12/27 02:46:20;;;;;;;6.85;2.63;;;8.80;99.90;;;;;;5051750;28;20049;-64
2021/12/27 02:48:47;;;;;;;16.00;3.08;;;8.80;99.90;;;;;;5049782;28;20059;-65
2021/12/27 02:51:17;;;;;;;21.92;4.70;;;8.80;99.90;;;;;;5050902;28;20045;-64
2021/12/27 02:53:44;;;;;;;8.52;2.28;;;8.80;99.90;;;;;;5050438;28;20053;-63
2021/12/27 02:56:11;;;;;;;7.32;2.30;;;8.80;99.90;;;;;;5059159;28;20048;-65
2021/12/27 02:58:38;;;;;;;14.80;3.05;;;8.90;99.90;;;;;;5054790;28;20040;-64
2021/12/27 03:01:13;;;;;;;11.95;2.90;;;8.80;99.90;;;;;;5047362;28;20140;-65
2021/12/27 03:03:40;;;;;;;11.13;2.13;;;8.80;99.90;;;;;;5033172;28;20230;-64
2021/12/27 03:06:07;;;;;;;9.13;2.15;;;8.80;99.90;;;;;;5050846;28;20103;-64
2021/12/27 03:08:34;;;;;;;13.70;2.33;;;8.80;99.90;;;;;;5050559;28;20048;-66
2021/12/27 03:11:01;;;;;;;8.80;2.20;;;8.80;99.90;;;;;;5050723;28;20071;-64
2021/12/27 03:13:34;;;;;;;8.98;1.77;;;8.80;99.90;;;;;;5050703;28;20048;-65
2021/12/27 03:16:03;;;;;;;12.60;3.20;;;8.80;99.90;;;;;;5050651;28;20090;-65
2021/12/27 03:18:31;;;;;;;9.50;2.42;;;8.80;99.90;;;;;;5050111;28;20404;-65
2021/12/27 03:20:58;;;;;;;10.35;2.45;;;8.80;99.90;;;;;;5050604;28;20106;-65
2021/12/27 03:23:25;;;;;;;8.45;2.15;;;8.80;99.90;;;;;;5050360;28;20052;-65
2021/12/27 03:25:53;;;;;;;10.05;2.22;;;8.80;99.90;;;;;;5050515;28;20041;-64
2021/12/27 03:28:20;;;;;;;11.60;2.67;;;8.90;99.90;;;;;;5050333;28;20048;-65
2021/12/27 03:30:47;;;;;;;13.50;2.45;;;8.90;99.90;;;;;;5046541;28;20118;-64
2021/12/27 03:33:14;;;;;;;15.80;2.67;;;8.80;99.90;;;;;;5050202;28;20051;-64
2021/12/27 03:35:51;;;;;;;16.65;4.05;;;8.90;99.90;;;;;;5049826;28;20041;-64
2021/12/27 03:38:18;;;;;;;19.88;4.57;;;8.90;99.90;;;;;;5050103;28;20091;-64
2021/12/27 03:40:45;;;;;;;12.55;2.28;;;8.90;99.90;;;;;;5050068;28;20072;-64
2021/12/27 03:43:12;;;;;;;13.52;3.28;;;8.90;99.90;;;;;;5049825;28;20106;-64
2021/12/27 03:45:39;;;;;;;11.35;2.42;;;8.90;99.90;;;;;;5048043;28;20049;-64
2021/12/27 03:48:07;;;;;;;11.70;3.67;;;8.90;99.90;;;;;;5049985;28;20110;-64
2021/12/27 03:50:34;;;;;;;14.32;4.90;;;8.90;99.90;;;;;;5049537;28;20049;-64
2021/12/27 03:53:01;;;;;;;16.60;4.07;;;8.90;99.90;;;;;;5049474;28;20072;-64
2021/12/27 03:55:28;;;;;;;9.27;2.97;;;8.90;99.90;;;;;;5049464;28;20077;-65
2021/12/27 03:58:05;;;;;;;12.95;4.13;;;8.90;99.90;;;;;;5048305;28;20087;-64
2021/12/27 04:00:46;;;;;;;11.68;3.25;;;8.90;99.90;;;;;;5048868;28;20063;-64
2021/12/27 04:03:15;;;;;;;17.13;4.63;;;8.90;99.90;;;;;;5034091;28;20057;-64
2021/12/27 04:05:42;;;;;;;8.70;3.20;;;8.90;99.90;;;;;;5048002;28;20072;-64
2021/12/27 04:08:12;;;;;;;8.80;3.08;;;8.90;99.90;;;;;;5048057;28;20053;-64
2021/12/27 04:10:40;;;;;;;8.98;3.22;;;8.90;99.90;;;;;;5049165;28;20041;-64
2021/12/27 04:13:08;;;;;;;14.60;3.53;;;8.90;99.90;;;;;;5049573;28;20049;-64
2021/12/27 04:15:36;;;;;;;10.75;4.70;;;8.90;99.90;;;;;;5049039;28;20052;-64
2021/12/27 04:18:03;;;;;;;11.20;4.68;;;8.90;99.90;;;;;;5049129;28;20055;-64
2021/12/27 04:20:30;;;;;;;19.77;4.35;;;8.90;99.90;;;;;;5048870;28;20090;-64
2021/12/27 04:22:57;;;;;;;6.47;2.95;;;8.90;99.90;;;;;;5048967;28;20053;-64
2021/12/27 04:25:24;;;;;;;10.15;3.15;;;8.90;99.90;;;;;;5048696;28;20072;-64
2021/12/27 04:27:50;;;;;;;10.90;3.92;;;8.80;99.90;;;;;;5049182;28;20307;-64
2021/12/27 04:30:18;;;;;;;10.98;3.30;;;8.80;99.90;;;;;;5049922;28;20090;-69
2021/12/27 04:32:44;;;;;;;12.77;4.25;;;8.80;99.90;;;;;;5049213;28;20127;-64
2021/12/27 04:35:11;;;;;;;11.52;3.40;;;8.80;99.90;;;;;;5047667;28;20107;-64
2021/12/27 04:37:38;;;;;;;6.50;2.80;;;8.80;99.90;;;;;;5050055;28;20044;-63
2021/12/27 04:40:07;;;;;;;5.43;2.45;;;8.80;99.90;;;;;;5050438;28;20570;-66
2021/12/27 04:42:34;;;;;;;9.85;2.90;;;8.80;99.90;;;;;;5049961;28;20076;-64
2021/12/27 04:45:00;;;;;;;10.40;3.15;;;8.80;99.90;;;;;;5049515;28;20103;-63
2021/12/27 04:47:27;;;;;;;6.47;2.53;;;8.70;99.90;;;;;;5048305;28;20416;-64
2021/12/27 04:49:54;;;;;;;11.07;4.85;;;8.70;99.90;;;;;;5048370;28;20468;-64
2021/12/27 04:52:21;;;;;;;7.30;3.42;;;8.70;99.90;;;;;;5048299;28;20080;-64
2021/12/27 04:54:48;;;;;;;8.48;3.35;;;8.80;99.90;;;;;;5048675;28;20091;-64
2021/12/27 04:57:15;;;;;;;9.60;3.08;;;8.80;99.90;;;;;;5048515;28;20045;-64
2021/12/27 04:59:41;;;;;;;5.38;2.38;;;8.80;99.90;;;;;;5048621;28;20447;-64
2021/12/27 05:02:08;;;;;;;5.22;2.78;;;8.80;99.90;;;;;;5048400;28;20049;-64
2021/12/27 05:04:35;;;;;;;8.50;2.72;;;8.70;99.90;;;;;;5048666;28;20110;-64
2021/12/27 05:07:02;;;;;;;7.40;2.70;;;8.70;99.90;;;;;;5048277;28;20040;-64
2021/12/27 05:09:29;;;;;;;7.15;3.22;;;8.70;99.90;;;;;;5037785;28;20090;-64
2021/12/27 05:11:56;;;;;;;11.00;3.35;;;8.70;99.90;;;;;;5047707;28;20041;-64
2021/12/27 05:14:22;;;;;;;7.50;2.20;;;8.70;99.90;;;;;;5047748;28;20048;-64
2021/12/27 05:16:49;;;;;;;7.22;2.30;;;8.70;99.90;;;;;;5048310;28;20659;-64
2021/12/27 05:19:16;;;;;;;12.10;3.05;;;8.70;99.90;;;;;;5047084;28;20041;-64
2021/12/27 05:21:43;;;;;;;6.60;2.53;;;8.70;99.90;;;;;;5048346;28;20049;-64
2021/12/27 05:24:10;;;;;;;6.13;2.88;;;8.70;99.90;;;;;;5047783;28;20057;-64
2021/12/27 05:26:36;;;;;;;6.45;2.40;;;8.70;99.90;;;;;;5048612;28;20056;-64
2021/12/27 05:29:03;;;;;;;8.63;2.30;;;8.70;99.90;;;;;;5047947;28;20048;-63
2021/12/27 05:31:30;;;;;;;4.40;1.98;;;8.70;99.90;;;;;;5046827;28;20049;-64
2021/12/27 05:33:57;;;;;;;11.05;2.83;;;8.70;99.90;;;;;;5048084;28;20114;-64
2021/12/27 05:36:24;;;;;;;5.20;2.90;;;8.70;99.90;;;;;;5048253;28;20041;-63
2021/12/27 05:38:51;;;;;;;8.43;2.80;;;8.70;99.90;;;;;;5046510;28;20084;-64
2021/12/27 05:41:18;;;;;;;8.90;3.08;;;8.60;99.90;;;;;;5048314;28;20051;-63
2021/12/27 05:43:44;;;;;;;9.05;2.90;;;8.70;99.90;;;;;;5047660;28;20053;-64
2021/12/27 05:46:11;;;;;;;9.85;4.05;;;8.70;99.90;;;;;;5048030;28;20080;-63
2021/12/27 05:48:38;;;;;;;5.07;2.50;;;8.70;99.90;;;;;;5047647;28;20140;-64
2021/12/27 05:51:05;;;;;;;7.72;3.28;;;8.70;99.90;;;;;;5048116;28;20128;-63
2021/12/27 05:53:32;;;;;;;7.20;2.42;;;8.60;99.90;;;;;;5047797;28;20099;-63
2021/12/27 05:55:58;;;;;;;8.82;3.45;;;8.60;99.90;;;;;;5047908;28;20451;-64
2021/12/27 05:58:25;;;;;;;9.15;2.83;;;8.70;99.90;;;;;;5047616;28;20873;-63
2021/12/27 06:00:52;;;;;;;4.70;2.55;;;8.70;99.90;;;;;;5047698;28;20048;-63
2021/12/27 06:03:20;;;;;;;6.68;3.10;;;8.60;99.90;;;;;;5047862;28;20045;-63
2021/12/27 06:05:47;;;;;;;11.23;3.33;;;8.70;99.90;;;;;;5046754;28;20095;-63
2021/12/27 06:08:14;;;;;;;9.30;3.38;;;8.70;99.90;;;;;;5048301;28;20158;-63
2021/12/27 06:10:40;;;;;;;4.82;3.25;;;8.70;99.90;;;;;;5049322;28;20045;-63
2021/12/27 06:13:07;;;;;;;5.18;3.35;;;8.70;99.90;;;;;;5048896;28;20136;-64
2021/12/27 06:15:34;;;;;;;7.60;3.50;;;8.70;99.90;;;;;;5046427;28;20049;-63
2021/12/27 06:18:01;;;;;;;7.38;2.75;;;8.70;99.90;;;;;;5047768;28;20550;-63
2021/12/27 06:20:28;;;;;;;6.40;3.50;;;8.70;99.90;;;;;;5047585;28;20116;-63
2021/12/27 06:22:57;;;;;;;6.97;4.72;;;8.70;99.90;;;;;;5047749;28;20049;-63
2021/12/27 06:25:23;;;;;;;6.95;3.65;;;8.80;99.90;;;;;;5050514;28;20080;-63
2021/12/27 06:27:50;;;;;;;8.05;4.00;;;8.80;99.90;;;;;;5051347;28;20040;-63
2021/12/27 06:30:18;;;;;;;7.45;4.55;;;8.80;99.90;;;;;;5050928;28;20492;-64
2021/12/27 06:32:46;;;;;;;11.88;4.63;;;8.80;99.90;;;;;;5050293;28;20122;-63
2021/12/27 06:35:13;;;;;;;7.97;4.75;;;8.80;99.90;;;;;;5051011;28;20048;-63
2021/12/27 06:37:40;;;;;;;12.27;4.35;;;8.80;99.90;;;;;;5051433;28;20099;-64
2021/12/27 06:40:08;;;;;;;9.10;5.78;;;8.80;99.90;;;;;;5051049;28;20041;-64
2021/12/27 06:42:35;;;;;;;9.27;5.07;;;8.80;99.90;;;;;;5039869;28;20604;-63
2021/12/27 06:45:03;;;;;;;10.68;5.90;;;8.80;99.90;;;;;;5049622;28;20099;-63
2021/12/27 06:47:29;;;;;;;10.68;5.43;;;8.90;99.90;;;;;;5049887;28;20048;-63
2021/12/27 06:49:56;;;;;;;13.90;5.80;;;8.90;99.90;;;;;;5050697;28;20124;-63
2021/12/27 06:52:24;;;;;;;8.63;5.60;;;8.90;99.90;;;;;;5049449;28;20077;-64
2021/12/27 06:54:51;;;;;;;11.25;6.93;;;8.90;99.90;;;;;;5050671;28;20077;-63
2021/12/27 06:57:25;;;;;;;13.82;6.07;;;8.90;99.90;;;;;;5050442;28;20057;-63
2021/12/27 06:59:52;;;;;;;13.32;7.05;;;8.90;99.90;;;;;;5050996;28;20076;-64
2021/12/27 07:02:19;;;;;;;12.13;6.80;;;8.80;99.90;;;;;;5050480;28;20084;-64
2021/12/27 07:04:46;;;;;;;14.02;7.13;;;8.80;99.90;;;;;;5049371;28;20079;-63
2021/12/27 07:07:12;;;;;;;12.52;6.20;;;8.90;99.90;;;;;;5049171;28;20041;-63
2021/12/27 07:09:39;;;;;;;15.00;7.55;;;8.90;99.90;;;;;;5050607;28;20049;-63
2021/12/27 07:12:07;;;;;;;13.10;7.28;;;8.90;99.90;;;;;;5050038;28;20550;-64
2021/12/27 07:14:33;;;;;;;13.73;7.47;;;8.90;99.90;;;;;;5050555;28;20091;-64
2021/12/27 07:17:00;;;;;;;10.70;7.03;;;8.90;99.90;;;;;;5050524;28;20091;-63
2021/12/27 07:19:27;;;;;;;12.90;6.43;;;9.00;99.90;;;;;;5052021;28;20052;-63
2021/12/27 07:21:54;;;;;;;13.27;7.15;;;9.00;99.90;;;;;;5050465;28;20041;-63
2021/12/27 07:24:22;;;;;;;10.57;6.78;;;9.00;99.90;;;;;;5050364;28;20049;-63
2021/12/27 07:26:48;;;;;;;12.35;7.45;;;9.00;99.90;;;;;;5049942;28;20086;-65
2021/12/27 07:29:15;;;;;;;12.98;8.50;;;9.00;99.90;;;;;;5050271;28;20048;-64
2021/12/27 07:31:43;;;;;;;15.80;7.25;;;9.00;99.90;;;;;;5049952;28;20407;-63
2021/12/27 07:34:10;;;;;;;12.40;7.63;;;9.00;99.90;;;;;;5049875;28;20047;-63
2021/12/27 07:36:36;;;;;;;13.70;7.68;;;9.00;99.90;;;;;;5047775;28;20052;-63
2021/12/27 07:39:04;;;;;;;12.07;7.93;;;9.10;99.90;;;;;;5050244;28;20053;-63
2021/12/27 07:41:31;;;;;;;12.20;7.45;;;9.10;99.90;;;;;;5050368;28;20076;-63
2021/12/27 07:43:58;;;;;;;12.40;8.18;;;9.10;99.90;;;;;;5048062;28;20076;-64
2021/12/27 07:46:25;;;;;;;13.07;7.70;;;9.10;99.90;;;;;;5049958;28;20040;-63
2021/12/27 07:48:52;;;;;;;11.07;7.60;;;9.10;99.90;;;;;;5049626;28;20053;-64
2021/12/27 07:51:19;;;;;;;13.80;8.27;;;9.10;99.90;;;;;;5049600;28;20489;-63
2021/12/27 07:53:45;;;;;;;9.30;7.25;;;9.10;99.90;;;;;;5050059;28;20084;-64
2021/12/27 07:56:12;;;;;;;11.10;7.30;;;9.10;99.90;;;;;;5050308;28;20045;-63
2021/12/27 07:58:39;;;;;;;14.73;8.05;;;9.20;99.90;;;;;;5049728;28;20094;-63
2021/12/27 08:01:07;;;;;;;13.25;6.82;;;9.20;99.90;;;;;;5049417;28;20082;-63
2021/12/27 08:03:33;;;;;;;16.48;7.93;;;9.20;99.90;;;;;;5047650;28;20090;-64
2021/12/27 08:06:00;;;;;;;10.57;6.53;;;9.20;99.90;;;;;;5047659;28;20088;-63
2021/12/27 08:08:27;;;;;;;16.63;8.38;;;9.20;99.90;;;;;;5047362;28;20093;-63
2021/12/27 08:10:54;;;;;;;11.35;6.93;;;9.20;99.90;;;;;;5047886;28;20076;-63
2021/12/27 08:13:21;;;;;;;14.32;6.90;;;9.20;99.90;;;;;;5047174;28;20064;-64
2021/12/27 08:15:48;;;;;;;9.85;6.25;;;9.30;99.90;;;;;;5047450;28;20106;-64
2021/12/27 08:18:15;;;;;;;9.80;6.53;;;9.30;99.90;;;;;;5047138;28;20041;-64
2021/12/27 08:20:42;;;;;;;10.40;5.97;;;9.30;99.90;;;;;;5047352;28;20079;-64
2021/12/27 08:23:09;;;;;;;8.30;5.28;;;9.30;99.90;;;;;;5046992;28;20041;-64
2021/12/27 08:25:35;;;;;;;12.02;6.00;;;9.30;99.90;;;;;;5044032;28;20091;-63
2021/12/27 08:28:02;;;;;;;8.70;4.85;;;9.30;99.90;;;;;;5047303;28;20045;-64
2021/12/27 08:30:31;;;;;;;7.65;5.38;;;9.30;99.90;;;;;;5048431;28;20511;-64
2021/12/27 08:32:59;;;;;;;14.98;6.15;;;9.30;99.90;;;;;;5048753;28;20092;-64
2021/12/27 08:35:26;;;;;;;10.00;5.60;;;9.40;99.90;;;;;;5048867;28;20121;-64
2021/12/27 08:37:53;;;;;;;8.75;5.18;;;9.40;99.90;;;;;;5049150;28;20481;-64
2021/12/27 08:40:20;;;;;;;8.27;5.18;;;9.40;99.90;;;;;;5048445;28;20516;-64
2021/12/27 08:42:46;;;;;;;9.32;5.05;;;9.40;99.90;;;;;;5048850;28;20464;-64
2021/12/27 08:45:13;;;;;;;9.80;5.43;;;9.40;99.90;;;;;;5048224;28;20053;-64
2021/12/27 08:47:40;;;;;;;5.47;4.43;;;9.40;99.90;;;;;;5048824;28;20132;-63
2021/12/27 08:50:07;;;;;;;7.75;4.32;;;9.40;99.90;;;;;;5048176;28;20076;-64
2021/12/27 08:52:34;;;;;;;10.95;3.88;;;9.40;99.90;;;;;;5048602;28;20049;-64
2021/12/27 08:55:02;;;;;;;10.20;4.63;;;9.40;99.90;;;;;;5048118;28;20041;-64
2021/12/27 08:57:30;;;;;;;7.70;4.82;;;9.40;99.90;;;;;;5048224;28;20483;-63
2021/12/27 08:59:57;;;;;;;10.82;4.35;;;9.40;99.90;;;;;;5047280;28;20099;-65
2021/12/27 09:02:24;;;;;;;7.38;3.35;;;9.50;99.90;;;;;;5045701;28;20045;-64
2021/12/27 09:04:51;;;;;;;7.93;3.45;;;9.50;99.90;;;;;;5047632;28;20183;-63
2021/12/27 09:07:18;;;;;;;5.43;3.30;;;9.50;99.90;;;;;;5047912;28;20049;-64
2021/12/27 09:09:45;;;;;;;6.97;2.97;;;9.50;99.90;;;;;;5045163;28;20074;-64
2021/12/27 09:12:12;;;;;;;6.95;3.70;;;9.50;99.90;;;;;;5046654;28;20318;-65
2021/12/27 09:14:38;;;;;;;5.00;3.15;;;9.50;99.90;;;;;;5047555;28;20090;-64
2021/12/27 09:17:05;;;;;;;8.10;3.42;;;9.60;99.90;;;;;;5048025;28;20076;-64
2021/12/27 09:19:32;;;;;;;3.70;3.13;;;9.60;99.90;;;;;;5045245;28;20131;-63
2021/12/27 09:22:00;;;;;;;11.18;3.13;;;9.60;99.90;;;;;;5047710;28;20095;-61
2021/12/27 09:24:28;;;;;;;6.60;2.63;;;9.60;99.90;;;;;;5047850;28;20049;-61
2021/12/27 09:26:55;;;;;;;6.72;3.53;;;9.60;99.90;;;;;;5046856;28;20045;-61
2021/12/27 09:29:22;;;;;;;9.52;4.10;;;9.60;99.90;;;;;;5048134;28;20044;-61
2021/12/27 09:31:50;;;;;;;6.70;3.30;;;9.60;99.90;;;;;;5046919;28;20111;-62
2021/12/27 09:34:18;;;;;;;13.43;3.42;;;9.60;99.90;;;;;;5046410;28;20098;-61
2021/12/27 09:36:45;;;;;;;12.30;4.05;;;9.60;99.90;;;;;;5047551;28;20416;-61
2021/12/27 09:39:12;;;;;;;6.35;4.75;;;9.60;99.90;;;;;;5046767;28;20045;-61
2021/12/27 09:41:39;;;;;;;7.80;2.90;;;9.70;99.90;;;;;;5046229;28;20049;-61
2021/12/27 09:44:06;;;;;;;5.65;2.30;;;9.60;99.90;;;;;;5047847;28;20103;-61
2021/12/27 09:46:33;;;;;;;4.55;1.92;;;9.60;99.90;;;;;;5047859;28;20052;-61
2021/12/27 09:49:03;;;;;;;4.60;2.08;;;9.60;99.90;;;;;;5046370;28;20059;-62
2021/12/27 09:51:30;;;;;;;5.25;2.92;;;9.70;99.90;;;;;;5047560;28;20052;-62
2021/12/27 09:53:57;;;;;;;2.38;1.55;;;9.70;99.90;;;;;;5047885;28;20045;-62
2021/12/27 09:56:24;;;;;;;4.65;2.30;;;9.70;99.90;;;;;;5046103;28;20041;-62
2021/12/27 09:58:50;;;;;;;3.72;2.17;;;9.70;99.90;;;;;;5048687;28;20087;-61
2021/12/27 10:01:17;;;;;;;2.50;1.65;;;9.70;99.90;;;;;;5051282;28;20477;-61
2021/12/27 10:03:56;;;;;;;2.97;2.03;;;9.70;99.90;;;;;;5050413;28;20508;-61
2021/12/27 10:06:23;;;;;;;7.60;2.40;;;9.70;99.90;;;;;;5049416;28;20455;-61
2021/12/27 10:08:52;;;;;;;2.50;1.88;;;9.70;99.90;;;;;;5050878;28;20427;-61
2021/12/27 10:11:29;;;;;;;6.35;1.65;;;9.70;99.90;;;;;;5051406;28;20084;-62
2021/12/27 10:14:04;;;;;;;5.00;1.77;;;9.70;99.90;;;;;;5047904;28;20045;-62
2021/12/27 10:16:32;;;;;;;5.57;1.80;;;9.70;99.90;;;;;;5048028;28;20049;-61
2021/12/27 10:19:01;;;;;;;3.65;1.88;;;9.70;99.90;;;;;;5047396;28;20076;-62
2021/12/27 10:21:28;;;;;;;8.55;1.83;;;9.70;99.90;;;;;;5048581;28;20504;-62
2021/12/27 10:24:03;;;;;;;5.82;2.30;;;9.70;99.90;;;;;;5046792;28;20053;-61
2021/12/27 10:26:31;;;;;;;5.03;1.58;;;9.70;99.90;;;;;;5048614;28;20310;-61
2021/12/27 10:29:07;;;;;;;3.35;1.80;;;9.70;99.90;;;;;;5046464;28;20463;-62
2021/12/27 10:32:04;;;;;;;2.20;1.38;;;9.70;99.90;;;;;;5028439;28;20049;-61
2021/12/27 10:34:43;;;;;;;3.67;1.50;;;9.70;99.90;;;;;;5046701;28;20479;-61
2021/12/27 10:37:14;;;;;;;7.40;1.98;;;9.70;99.90;;;;;;5047871;28;20049;-61
2021/12/27 10:39:53;;;;;;;3.13;2.05;;;9.80;99.90;;;;;;5046222;28;20060;-62
2021/12/27 10:42:23;;;;;;;3.25;1.58;;;9.80;99.90;;;;;;5047388;28;20083;-61
2021/12/27 10:44:51;;;;;;;5.10;2.15;;;9.80;99.90;;;;;;5045510;28;20131;-63
2021/12/27 10:47:36;;;;;;;3.58;1.60;;;9.80;99.90;;;;;;5046797;28;20650;-62
2021/12/27 10:50:04;;;;;;;;;;;9.80;99.90;;;;;;5044936;28;20061;-63
2021/12/27 10:52:51;;;;;;;3.92;1.10;;;9.80;99.90;;;;;;5046167;28;19925;-62
2021/12/27 10:55:38;;;;;;;3.58;1.75;;;9.80;99.90;;;;;;5045283;28;20103;-62
2021/12/27 10:58:20;;;;;;;10.55;1.20;;;9.90;99.90;;;;;;5046339;28;20072;-62
2021/12/27 11:00:57;;;;;;;3.25;1.30;;;9.90;99.90;;;;;;5044602;28;20135;-62
2021/12/27 11:03:43;;;;;;;2.55;1.50;;;10.00;99.90;;;;;;5043309;28;20048;-61
2021/12/27 11:06:12;;;;;;;5.63;1.10;;;10.00;99.90;;;;;;5045479;28;20049;-62
2021/12/27 11:08:41;;;;;;;1.73;0.90;;;10.00;99.90;;;;;;5046684;28;20044;-63
2021/12/27 11:11:08;;;;;;;6.07;1.02;;;10.00;99.90;;;;;;5042660;28;20087;-62
2021/12/27 11:13:35;;;;;;;3.67;1.20;;;10.10;99.90;;;;;;4697816;28;10000417;-63
2021/12/27 11:16:02;;;;;;;4.65;1.00;;;10.00;99.90;;;;;;5048190;28;20045;-63
2021/12/27 11:18:29;;;;;;;2.70;1.30;;;10.10;99.90;;;;;;5048415;28;20080;-63
2021/12/27 11:21:18;;;;;;;2.15;1.27;;;10.00;99.90;;;;;;5047862;28;20723;-62
2021/12/27 11:23:49;;;;;;;3.17;0.95;;;10.10;99.90;;;;;;5043988;28;20147;-62
2021/12/27 11:26:36;;;;;;;4.20;1.00;;;10.00;99.90;;;;;;5046508;28;20045;-63
2021/12/27 11:29:13;;;;;;;2.13;1.05;;;10.10;99.90;;;;;;5047339;28;20049;-62
2021/12/27 11:31:40;;;;;;;3.70;1.33;;;10.10;99.90;;;;;;5045982;28;20458;-62
2021/12/27 11:34:09;;;;;;;2.90;1.13;;;10.00;99.90;;;;;;5045648;28;20081;-62
2021/12/27 11:36:38;;;;;;;2.25;0.95;;;10.10;99.90;;;;;;5045456;28;20044;-62
2021/12/27 11:39:28;;;;;;;1.45;1.17;;;10.00;99.90;;;;;;5044862;28;20085;-63
2021/12/27 11:42:01;;;;;;;5.45;1.20;;;10.00;99.90;;;;;;5028242;28;20094;-63
2021/12/27 11:44:38;;;;;;;2.80;0.93;;;10.10;99.90;;;;;;5046405;28;20056;-62
2021/12/27 11:47:06;;;;;;;3.67;0.90;;;10.00;99.90;;;;;;5044802;28;20041;-62
2021/12/27 11:49:47;;;;;;;4.20;1.73;;;10.00;99.90;;;;;;5045124;28;20057;-62
2021/12/27 11:52:27;;;;;;;3.95;1.05;;;10.00;99.90;;;;;;5045018;28;20045;-61
2021/12/27 11:54:55;;;;;;;2.10;1.05;;;10.10;99.90;;;;;;5046499;28;20134;-61
2021/12/27 11:57:44;;;;;;;5.60;1.30;;;10.10;99.90;;;;;;5046819;28;20048;-61
2021/12/27 12:00:34;;;;;;;7.43;1.48;;;10.10;99.90;;;;;;5044511;28;20079;-61
2021/12/27 12:03:01;;;;;;;5.63;1.45;;;10.10;99.90;;;;;;5040956;28;20041;-61
2021/12/27 12:05:36;;;;;;;8.95;2.17;;;10.10;99.90;;;;;;5045686;28;20049;-61
2021/12/27 12:08:04;;;;;;;5.63;2.83;;;10.10;99.90;;;;;;5043211;28;20080;-62
2021/12/27 12:10:31;;;;;;;5.45;1.45;;;10.10;99.90;;;;;;5045473;28;20048;-62
2021/12/27 12:13:27;;;;;;;4.82;1.42;;;10.10;99.90;;;;;;5044906;28;20049;-65
2021/12/27 12:16:07;;;;;;;5.32;1.98;;;10.10;99.90;;;;;;5046439;28;20049;-61
2021/12/27 12:18:37;;;;;;;5.47;2.00;;;10.10;99.90;;;;;;5046396;28;20051;-61
2021/12/27 12:21:07;;;;;;;5.50;2.00;;;10.10;99.90;;;;;;5044798;28;20048;-61
2021/12/27 12:23:57;;;;;;;4.63;1.60;;;10.10;99.90;;;;;;5043637;28;20155;-60
2021/12/27 12:26:24;;;;;;;2.85;1.55;;;10.10;99.90;;;;;;5046260;28;20266;-62
2021/12/27 12:29:03;;;;;;;5.22;2.03;;;10.10;99.90;;;;;;5045355;28;20095;-63
2021/12/27 12:31:34;;;;;;;2.50;1.05;;;10.10;99.90;;;;;;5046388;28;20079;-63
2021/12/27 12:34:11;;;;;;;2.78;1.50;;;10.20;99.90;;;;;;5046182;28;20548;-61
2021/12/27 12:36:44;;;;;;;7.65;2.20;;;10.20;99.90;;;;;;5044377;28;20052;-61
2021/12/27 12:39:11;;;;;;;2.67;1.58;;;10.20;99.90;;;;;;5046087;28;20084;-63
2021/12/27 12:41:48;;;;;;;2.55;1.10;;;10.20;99.90;;;;;;5025503;28;20515;-62
2021/12/27 12:44:17;;;;;;;3.78;1.50;;;10.20;99.90;;;;;;5044074;28;20052;-60
2021/12/27 12:46:46;;;;;;;6.85;1.50;;;10.20;99.90;;;;;;5044642;28;20095;-62
2021/12/27 12:49:14;;;;;;;5.43;1.52;;;10.20;99.90;;;;;;5043892;28;20045;-61
2021/12/27 12:51:54;;;;;;;4.72;1.58;;;10.30;99.90;;;;;;5044363;28;20095;-61
2021/12/27 12:54:24;;;;;;;4.25;1.40;;;10.20;99.90;;;;;;5044147;28;20079;-64
2021/12/27 12:56:54;;;;;;;7.97;1.90;;;10.20;99.90;;;;;;5045046;28;20064;-63
2021/12/27 12:59:22;;;;;;;2.10;1.00;;;10.20;99.90;;;;;;5043482;28;20055;-63
2021/12/27 13:02:13;;;;;;;2.28;1.15;;;10.30;99.90;;;;;;5044810;28;20049;-62
2021/12/27 13:04:41;;;;;;;2.47;1.20;;;10.30;99.90;;;;;;5040410;28;20272;-63
2021/12/27 13:07:08;;;;;;;2.47;1.35;;;10.30;99.90;;;;;;5045939;28;20526;-62
2021/12/27 13:09:49;;;;;;;2.83;0.90;;;10.30;99.90;;;;;;5044773;28;20057;-62